Sea Of Joy — OEX6720 — position and weather

sailwx.info

Track history (hours):
 
Tides and Currents Weather Stations Pressure Air Temp Water Temp Dewpoint Dewpoint Depression Visibility Wind Speed Wind Dir Waves Ship Positions

Sea Of Joy

Last reported at 2019-May-23 15:28 UTC. Time now 2019-May-24 02:50 UTC.
Position N 45°19' E 013°33'.

Length 13 m; draft 2 m.

Type: Sailing vessel. MMSI: 203114200.

Date/timePositionNaut miles runAvg speedWind from/ knotsBaromVisibWave heightAir tempDewpointWater temp
2019-May-23 15:28N 45°19' E 013°33'0 0.2
2019-May-23 14:44N 45°19' E 013°33'1 5.9
2019-May-23 14:30N 45°20' E 013°32'2 3.3
2019-May-23 13:57N 45°21' E 013°31'2 3.5
2019-May-23 13:29N 45°23' E 013°30'2 3.6
2019-May-23 13:00N 45°25' E 013°29'2 4.4
2019-May-23 12:30N 45°27' E 013°29'2 4.9
2019-May-23 12:00N 45°29' E 013°28'1 2.5
2019-May-23 11:29N 45°30' E 013°30'2 4.8
2019-May-23 11:00N 45°32' E 013°30'1 2.8
2019-May-23 10:30N 45°32' E 013°32'1 1.3
2019-May-23 09:32N 45°32' E 013°34'0 5.1
2019-May-23 09:29N 45°32' E 013°34'3 5.7
2019-May-23 09:00N 45°32' E 013°38'2 3.1
2019-May-23 08:23N 45°33' E 013°40'2 5.9
2019-May-23 08:00N 45°33' E 013°44'0 0.1
2019-May-23 07:28N 45°33' E 013°44'0 0.2
2019-May-23 06:58N 45°33' E 013°44'0 0.0
2019-May-22 20:34N 45°33' E 013°44'0 0.0
2019-May-22 20:16N 45°33' E 013°44'0 0.0
2019-May-22 19:52N 45°33' E 013°44'0 0.0
2019-May-22 19:25N 45°33' E 013°44'0 0.0
2019-May-22 18:16N 45°33' E 013°44'0 0.0
2019-May-22 17:52N 45°33' E 013°44'0 0.0
2019-May-22 16:40N 45°33' E 013°44'0 0.1
2019-May-22 15:44N 45°33' E 013°43'1 5.8
2019-May-22 15:29N 45°34' E 013°42'3 6.1
2019-May-22 15:00N 45°34' E 013°38'3 6.2
2019-May-22 14:30N 45°35' E 013°33'3 6.2
2019-May-22 14:00N 45°36' E 013°29'3 6.5
2019-May-22 13:29N 45°37' E 013°25'3 6.6
2019-May-22 13:00N 45°38' E 013°20'3 6.5
2019-May-22 12:30N 45°39' E 013°16'3 5.8
2019-May-22 12:00N 45°40' E 013°12'2 4.6
2019-May-22 11:29N 45°42' E 013°09'2 4.4
2019-May-22 11:00N 45°43' E 013°07'3 5.2
2019-May-22 10:30N 45°45' E 013°04'1 1.5
2019-May-22 09:57N 45°46' E 013°04'0 0.0
2019-May-22 09:24N 45°46' E 013°04'0 0.0
2019-May-22 09:00N 45°46' E 013°04'0 0.0
2019-May-22 08:30N 45°46' E 013°04'0 0.0
2019-May-22 07:57N 45°46' E 013°04'0 0.0
2019-May-22 07:18N 45°46' E 013°04'0 0.0
2019-May-22 07:00N 45°46' E 013°04'0 0.0
2019-May-22 06:30N 45°46' E 013°04'0 0.0
2019-May-22 06:00N 45°46' E 013°04'0 0.0
2019-May-22 05:27N 45°46' E 013°04'0 0.0
2019-May-22 04:57N 45°46' E 013°04'0 0.0
2019-May-22 04:30N 45°46' E 013°04'0 0.0
2019-May-22 04:00N 45°46' E 013°04'0 0.0
2019-May-22 03:18N 45°46' E 013°04'0 0.0
2019-May-22 02:54N 45°46' E 013°04'0 0.0
2019-May-22 02:30N 45°46' E 013°04'0 0.0
2019-May-22 02:00N 45°46' E 013°04'0 0.0
2019-May-22 01:27N 45°46' E 013°04'0 0.0
2019-May-22 01:00N 45°46' E 013°04'0 0.0
2019-May-22 00:30N 45°46' E 013°04'0 0.0
2019-May-22 00:00N 45°46' E 013°04'0 0.0
2019-May-21 23:24N 45°46' E 013°04'0 0.0
2019-May-21 22:57N 45°46' E 013°04'0 0.0
2019-May-21 22:30N 45°46' E 013°04'0 0.0
2019-May-21 21:48N 45°46' E 013°04'0 0.0
2019-May-21 21:30N 45°46' E 013°04'0 0.0
2019-May-21 21:00N 45°46' E 013°04'0 0.0
2019-May-21 20:27N 45°46' E 013°04'0 0.0
2019-May-21 19:54N 45°46' E 013°04'0 0.0
2019-May-21 19:30N 45°46' E 013°04'0 0.0
2019-May-21 18:54N 45°46' E 013°04'0 0.0
2019-May-21 18:30N 45°46' E 013°04'0 0.0
2019-May-21 17:57N 45°46' E 013°04'0 0.0
2019-May-21 17:24N 45°46' E 013°04'0 0.0
2019-May-21 17:00N 45°46' E 013°04'0 0.0
2019-May-21 16:15N 45°46' E 013°04'0 0.0
2019-May-21 15:51N 45°46' E 013°04'0 0.0
2019-May-21 15:18N 45°46' E 013°04'0 0.0
2019-May-21 14:57N 45°46' E 013°04'0 0.0
2019-May-21 14:27N 45°46' E 013°04'0 0.0
2019-May-21 14:00N 45°46' E 013°04'0 0.0
2019-May-21 13:21N 45°46' E 013°04'0 0.0
2019-May-21 12:42N 45°46' E 013°04'0 0.0
2019-May-21 12:27N 45°46' E 013°04'0 0.0
2019-May-21 11:45N 45°46' E 013°04'0 0.0
2019-May-21 11:30N 45°46' E 013°04'0 0.0
2019-May-21 11:00N 45°46' E 013°04'0 0.0
2019-May-21 10:27N 45°46' E 013°04'0 0.0
2019-May-21 10:00N 45°46' E 013°04'0 0.0
2019-May-21 09:30N 45°46' E 013°04'0 0.0
2019-May-21 09:00N 45°46' E 013°04'0 0.0
2019-May-21 08:21N 45°46' E 013°04'0 0.0
2019-May-21 07:57N 45°46' E 013°04'0 0.0
2019-May-21 07:09N 45°46' E 013°04'0 0.0
2019-May-21 06:54N 45°46' E 013°04'0 0.0
2019-May-21 05:27N 45°46' E 013°04'0 0.0
2019-May-21 04:45N 45°46' E 013°04'0 0.0
2019-May-21 01:03N 45°46' E 013°04'0 0.0
2019-May-21 00:57N 45°46' E 013°04'0 0.0
2019-May-21 00:18N 45°46' E 013°04'0 0.0
2019-May-21 00:00N 45°46' E 013°04'0 0.0
2019-May-20 23:27N 45°46' E 013°04'0 0.0
2019-May-20 23:00N 45°46' E 013°04'0 0.0
2019-May-20 22:27N 45°46' E 013°04'0 0.0
2019-May-20 22:00N 45°46' E 013°04'0 0.0
2019-May-20 21:30N 45°46' E 013°04'0 0.0
2019-May-20 21:00N 45°46' E 013°04'0 0.0
2019-May-20 20:21N 45°46' E 013°04'0 0.0
2019-May-20 20:00N 45°46' E 013°04'0 0.0
2019-May-20 19:27N 45°46' E 013°04'0 0.0
2019-May-20 18:57N 45°46' E 013°04'0 0.0
2019-May-20 18:27N 45°46' E 013°04'0 0.0
2019-May-20 18:00N 45°46' E 013°04'0 0.0
2019-May-20 17:30N 45°46' E 013°04'  
Track history (hours):
 
Tides and Currents Weather Stations Pressure Air Temp Water Temp Dewpoint Dewpoint Depression Visibility Wind Speed Wind Dir Waves Ship Positions

Sea Of Joy

Last reported at 2019-May-23 15:28 UTC. Time now 2019-May-24 02:50 UTC.
Position N 45°19' E 013°33'.

Length 13 m; draft 2 m.

Type: Sailing vessel. MMSI: 203114200.

Date/timePositionNaut miles runAvg speedWind from/ knotsBaromVisibWave heightAir tempDewpointWater temp
2019-May-23 15:28N 45°19' E 013°33'0 0.2
2019-May-23 14:44N 45°19' E 013°33'1 5.9
2019-May-23 14:30N 45°20' E 013°32'2 3.3
2019-May-23 13:57N 45°21' E 013°31'2 3.5
2019-May-23 13:29N 45°23' E 013°30'2 3.6
2019-May-23 13:00N 45°25' E 013°29'2 4.4
2019-May-23 12:30N 45°27' E 013°29'2 4.9
2019-May-23 12:00N 45°29' E 013°28'1 2.5
2019-May-23 11:29N 45°30' E 013°30'2 4.8
2019-May-23 11:00N 45°32' E 013°30'1 2.8
2019-May-23 10:30N 45°32' E 013°32'1 1.3
2019-May-23 09:32N 45°32' E 013°34'0 5.1
2019-May-23 09:29N 45°32' E 013°34'3 5.7
2019-May-23 09:00N 45°32' E 013°38'2 3.1
2019-May-23 08:23N 45°33' E 013°40'2 5.9
2019-May-23 08:00N 45°33' E 013°44'0 0.1
2019-May-23 07:28N 45°33' E 013°44'0 0.2
2019-May-23 06:58N 45°33' E 013°44'0 0.0
2019-May-22 20:34N 45°33' E 013°44'0 0.0
2019-May-22 20:16N 45°33' E 013°44'0 0.0
2019-May-22 19:52N 45°33' E 013°44'0 0.0
2019-May-22 19:25N 45°33' E 013°44'0 0.0
2019-May-22 18:16N 45°33' E 013°44'0 0.0
2019-May-22 17:52N 45°33' E 013°44'0 0.0
2019-May-22 16:40N 45°33' E 013°44'0 0.1
2019-May-22 15:44N 45°33' E 013°43'1 5.8
2019-May-22 15:29N 45°34' E 013°42'3 6.1
2019-May-22 15:00N 45°34' E 013°38'3 6.2
2019-May-22 14:30N 45°35' E 013°33'3 6.2
2019-May-22 14:00N 45°36' E 013°29'3 6.5
2019-May-22 13:29N 45°37' E 013°25'3 6.6
2019-May-22 13:00N 45°38' E 013°20'3 6.5
2019-May-22 12:30N 45°39' E 013°16'3 5.8
2019-May-22 12:00N 45°40' E 013°12'2 4.6
2019-May-22 11:29N 45°42' E 013°09'2 4.4
2019-May-22 11:00N 45°43' E 013°07'3 5.2
2019-May-22 10:30N 45°45' E 013°04'1 1.5
2019-May-22 09:57N 45°46' E 013°04'0 0.0
2019-May-22 09:24N 45°46' E 013°04'0 0.0
2019-May-22 09:00N 45°46' E 013°04'0 0.0
2019-May-22 08:30N 45°46' E 013°04'0 0.0
2019-May-22 07:57N 45°46' E 013°04'0 0.0
2019-May-22 07:18N 45°46' E 013°04'0 0.0
2019-May-22 07:00N 45°46' E 013°04'0 0.0
2019-May-22 06:30N 45°46' E 013°04'0 0.0
2019-May-22 06:00N 45°46' E 013°04'0 0.0
2019-May-22 05:27N 45°46' E 013°04'0 0.0
2019-May-22 04:57N 45°46' E 013°04'0 0.0
2019-May-22 04:30N 45°46' E 013°04'0 0.0
2019-May-22 04:00N 45°46' E 013°04'0 0.0
2019-May-22 03:18N 45°46' E 013°04'0 0.0
2019-May-22 02:54N 45°46' E 013°04'0 0.0
2019-May-22 02:30N 45°46' E 013°04'0 0.0
2019-May-22 02:00N 45°46' E 013°04'0 0.0
2019-May-22 01:27N 45°46' E 013°04'0 0.0
2019-May-22 01:00N 45°46' E 013°04'0 0.0
2019-May-22 00:30N 45°46' E 013°04'0 0.0
2019-May-22 00:00N 45°46' E 013°04'0 0.0
2019-May-21 23:24N 45°46' E 013°04'0 0.0
2019-May-21 22:57N 45°46' E 013°04'0 0.0
2019-May-21 22:30N 45°46' E 013°04'0 0.0
2019-May-21 21:48N 45°46' E 013°04'0 0.0
2019-May-21 21:30N 45°46' E 013°04'0 0.0
2019-May-21 21:00N 45°46' E 013°04'0 0.0
2019-May-21 20:27N 45°46' E 013°04'0 0.0
2019-May-21 19:54N 45°46' E 013°04'0 0.0
2019-May-21 19:30N 45°46' E 013°04'0 0.0
2019-May-21 18:54N 45°46' E 013°04'0 0.0
2019-May-21 18:30N 45°46' E 013°04'0 0.0
2019-May-21 17:57N 45°46' E 013°04'0 0.0
2019-May-21 17:24N 45°46' E 013°04'0 0.0
2019-May-21 17:00N 45°46' E 013°04'0 0.0
2019-May-21 16:15N 45°46' E 013°04'0 0.0
2019-May-21 15:51N 45°46' E 013°04'0 0.0
2019-May-21 15:18N 45°46' E 013°04'0 0.0
2019-May-21 14:57N 45°46' E 013°04'0 0.0
2019-May-21 14:27N 45°46' E 013°04'0 0.0
2019-May-21 14:00N 45°46' E 013°04'0 0.0
2019-May-21 13:21N 45°46' E 013°04'0 0.0
2019-May-21 12:42N 45°46' E 013°04'0 0.0
2019-May-21 12:27N 45°46' E 013°04'0 0.0
2019-May-21 11:45N 45°46' E 013°04'0 0.0
2019-May-21 11:30N 45°46' E 013°04'0 0.0
2019-May-21 11:00N 45°46' E 013°04'0 0.0
2019-May-21 10:27N 45°46' E 013°04'0 0.0
2019-May-21 10:00N 45°46' E 013°04'0 0.0
2019-May-21 09:30N 45°46' E 013°04'0 0.0
2019-May-21 09:00N 45°46' E 013°04'0 0.0
2019-May-21 08:21N 45°46' E 013°04'0 0.0
2019-May-21 07:57N 45°46' E 013°04'0 0.0
2019-May-21 07:09N 45°46' E 013°04'0 0.0
2019-May-21 06:54N 45°46' E 013°04'0 0.0
2019-May-21 05:27N 45°46' E 013°04'0 0.0
2019-May-21 04:45N 45°46' E 013°04'0 0.0
2019-May-21 01:03N 45°46' E 013°04'0 0.0
2019-May-21 00:57N 45°46' E 013°04'0 0.0
2019-May-21 00:18N 45°46' E 013°04'0 0.0
2019-May-21 00:00N 45°46' E 013°04'0 0.0
2019-May-20 23:27N 45°46' E 013°04'0 0.0
2019-May-20 23:00N 45°46' E 013°04'0 0.0
2019-May-20 22:27N 45°46' E 013°04'0 0.0
2019-May-20 22:00N 45°46' E 013°04'0 0.0
2019-May-20 21:30N 45°46' E 013°04'0 0.0
2019-May-20 21:00N 45°46' E 013°04'0 0.0
2019-May-20 20:21N 45°46' E 013°04'0 0.0
2019-May-20 20:00N 45°46' E 013°04'0 0.0
2019-May-20 19:27N 45°46' E 013°04'0 0.0
2019-May-20 18:57N 45°46' E 013°04'0 0.0
2019-May-20 18:27N 45°46' E 013°04'0 0.0
2019-May-20 18:00N 45°46' E 013°04'0 0.0
2019-May-20 17:30N 45°46' E 013°04'  

Dump ship's entire track history